Home > Products > Valid Products > TAF

000
FTUS45 KTFX 141408 AAA
TAFHLN
TAF AMD
KHLN 141408Z 1414/1512 28018G26KT P6SM SCT060 BKN120
     FM150200 27008KT P6SM SCT040 BKN090=



000
FTUS45 KTFX 141138
TAFGTF
TAF
KGTF 141138Z 1412/1512 22018G23KT P6SM BKN120
     FM141800 26022G37KT P6SM BKN100
     FM150000 25015KT P6SM BKN150=



000
FTUS45 KTFX 141138
TAFHLN
TAF
KHLN 141138Z 1412/1512 25005KT P6SM VCSH BKN040 BKN100
     FM141700 28018G26KT P6SM SCT060 BKN120
     FM150200 27008KT P6SM SCT040 BKN090=



000
FTUS45 KTFX 141138
TAFLWT
TAF
KLWT 141138Z 1412/1512 25012KT P6SM VCSH BKN035 BKN070
      TEMPO 1412/1415 -SHRASN
     FM141700 29020G27KT P6SM SCT060 BKN120
     FM150000 30012KT P6SM SCT080 BKN150=



000
FTUS45 KTFX 141138
TAFBZN
TAF
KBZN 141138Z 1412/1512 25005KT P6SM BKN060 BKN100
     FM141800 28015G22KT P6SM SCT030 BKN060
      TEMPO 1420/1424 -SHRA BKN030
     FM150400 25008KT P6SM VCSH SCT025 BKN045 PROB30 1504/1509 4SM
      -SN BKN025=



000
FTUS45 KTFX 141138
TAFHVR
TAF
KHVR 141138Z 1412/1512 23007KT P6SM VCSH BKN100
     FM141800 28020G28KT P6SM BKN120
     FM150000 25008KT P6SM SCT090 BKN150=



000
FTUS45 KTFX 141138
TAFCTB
TAF
KCTB 141138Z 1412/1512 26020KT P6SM BKN120
     FM141600 26027G40KT P6SM BKN120
     FM150200 26018KT P6SM BKN150=



000
FTUS45 KTFX 141138
TAFCTB
TAF
KCTB 141138Z 1412/1512 26020KT P6SM BKN120
     FM141600 26027G40KT P6SM BKN120
     FM150200 26018KT P6SM BKN150=



000
FTUS45 KTFX 141138
TAFBZN
TAF
KBZN 141138Z 1412/1512 25005KT P6SM BKN060 BKN100
     FM141800 28015G22KT P6SM SCT030 BKN060
      TEMPO 1420/1424 -SHRA BKN030
     FM150400 25008KT P6SM VCSH SCT025 BKN045 PROB30 1504/1509 4SM
      -SN BKN025=



000
FTUS45 KTFX 141138
TAFHVR
TAF
KHVR 141138Z 1412/1512 23007KT P6SM VCSH BKN100
     FM141800 28020G28KT P6SM BKN120
     FM150000 25008KT P6SM SCT090 BKN150=



000
FTUS45 KTFX 141138
TAFHLN
TAF
KHLN 141138Z 1412/1512 25005KT P6SM VCSH BKN040 BKN100
     FM141700 28018G26KT P6SM SCT060 BKN120
     FM150200 27008KT P6SM SCT040 BKN090=



000
FTUS45 KTFX 141138
TAFLWT
TAF
KLWT 141138Z 1412/1512 25012KT P6SM VCSH BKN035 BKN070
      TEMPO 1412/1415 -SHRASN
     FM141700 29020G27KT P6SM SCT060 BKN120
     FM150000 30012KT P6SM SCT080 BKN150=



000
FTUS45 KTFX 141138
TAFGTF
TAF
KGTF 141138Z 1412/1512 22018G23KT P6SM BKN120
     FM141800 26022G37KT P6SM BKN100
     FM150000 25015KT P6SM BKN150=



000
FTUS45 KTFX 140625 AAA
TAFGTF
TAF AMD
KGTF 140625Z 1406/1506 23015G24KT P6SM BKN100
     FM150000 25015KT P6SM SCT200=



000
FTUS45 KTFX 140547 CCA
TAFBZN
TAF COR
KBZN 140547Z 1406/1506 VRB03KT P6SM SCT070 BKN150
     FM140800 21006KT P6SM VCSH SCT050 OVC070
     FM141400 24011KT P6SM -SHRA SCT030 OVC050
     FM150000 29009KT P6SM SCT060 OVC100=



000
FTUS45 KTFX 140547 CCA
TAFBZN
TAF COR
KBZN 140547Z 1406/1506 VRB03KT P6SM SCT070 BKN150
     FM140800 21006KT P6SM VCSH SCT050 OVC070
     FM141400 24011KT P6SM -SHRA SCT030 OVC050
     FM150000 29009KT P6SM SCT060 OVC100=



000
FTUS45 KTFX 140539
TAFBZN
TAF
KBZN 140539Z 1406/1506 VRB03KT P6SM SCT070 BKN150
     FM140800 21006KT P6SM VCSH SCT050 OVC070
     FM141400 24011KT P6SM -SHRA SCT030 OVC050 WS020/27025KT
     FM150000 29009KT P6SM SCT060 OVC100=



000
FTUS45 KTFX 140539
TAFHLN
TAF
KHLN 140539Z 1406/1506 25006KT P6SM BKN070
     FM141200 25015G24KT P6SM VCSH SCT040 OVC060
     FM150000 27012KT P6SM BKN090 OVC150=



000
FTUS45 KTFX 140539
TAFHVR
TAF
KHVR 140539Z 1406/1506 26007KT P6SM BKN080
     FM141400 23016KT P6SM BKN120
     FM150000 26008KT P6SM SCT090 BKN200=



000
FTUS45 KTFX 140539
TAFLWT
TAF
KLWT 140539Z 1406/1506 24008KT P6SM SCT120
     FM140900 26012KT P6SM BKN100
     FM141200 26012G22KT P6SM VCSH SCT050 OVC080
     FM150000 29012KT P6SM SCT080 BKN200=



000
FTUS45 KTFX 140539
TAFBZN
TAF
KBZN 140539Z 1406/1506 VRB03KT P6SM SCT070 BKN150
     FM140800 21006KT P6SM VCSH SCT050 OVC070
     FM141400 24011KT P6SM -SHRA SCT030 OVC050 WS020/27025KT
     FM150000 29009KT P6SM SCT060 OVC100=



000
FTUS45 KTFX 140539
TAFCTB
TAF
KCTB 140539Z 1406/1506 25009KT P6SM BKN150
     FM141600 26022G35KT P6SM BKN120
     FM150300 26018KT P6SM OVC200=



000
FTUS45 KTFX 140539
TAFHLN
TAF
KHLN 140539Z 1406/1506 25006KT P6SM BKN070
     FM141200 25015G24KT P6SM VCSH SCT040 OVC060
     FM150000 27012KT P6SM BKN090 OVC150=



000
FTUS45 KTFX 140539
TAFGTF
TAF
KGTF 140539Z 1406/1506 22012KT P6SM BKN150
     FM141500 24017G27KT P6SM BKN100
     FM150000 25015KT P6SM SCT200=



000
FTUS45 KTFX 140539
TAFGTF
TAF
KGTF 140539Z 1406/1506 22012KT P6SM BKN150
     FM141500 24017G27KT P6SM BKN100
     FM150000 25015KT P6SM SCT200=



000
FTUS45 KTFX 140539
TAFLWT
TAF
KLWT 140539Z 1406/1506 24008KT P6SM SCT120
     FM140900 26012KT P6SM BKN100
     FM141200 26012G22KT P6SM VCSH SCT050 OVC080
     FM150000 29012KT P6SM SCT080 BKN200=



000
FTUS45 KTFX 140539
TAFHVR
TAF
KHVR 140539Z 1406/1506 26007KT P6SM BKN080
     FM141400 23016KT P6SM BKN120
     FM150000 26008KT P6SM SCT090 BKN200=



000
FTUS45 KTFX 140539
TAFCTB
TAF
KCTB 140539Z 1406/1506 25009KT P6SM BKN150
     FM141600 26022G35KT P6SM BKN120
     FM150300 26018KT P6SM OVC200=



000
FTUS45 KTFX 132338
TAFLWT
TAF
KLWT 132338Z 1400/1424 28012KT P6SM VCSH SCT035 BKN090
     FM140200 25010KT P6SM SCT120
     FM140900 26012KT P6SM BKN100
     FM141200 26012KT P6SM VCSH SCT050 OVC080=



000
FTUS45 KTFX 132338
TAFBZN
TAF
KBZN 132338Z 1400/1424 29010KT P6SM SCT070
     FM140800 21006KT P6SM VCSH SCT050 OVC070
     FM141400 24011KT P6SM -SHRA SCT030 OVC050 WS020/27025KT=



000
FTUS45 KTFX 132338
TAFCTB
TAF
KCTB 132338Z 1400/1424 26015G25KT P6SM SCT150
     FM140900 27013KT P6SM BKN120
     FM141600 26022G35KT P6SM BKN120=



000
FTUS45 KTFX 132338
TAFHLN
TAF
KHLN 132338Z 1400/1424 26008KT P6SM BKN060
      TEMPO 1400/1402 26012G24KT
     FM141200 25007KT P6SM VCSH SCT040 OVC060=



000
FTUS45 KTFX 132338
TAFGTF
TAF
KGTF 132338Z 1400/1424 23015G25KT P6SM SCT090
     FM140200 22014KT P6SM SCT200
     FM140900 23015KT P6SM BKN080
     FM141500 24017G27KT P6SM BKN100=



000
FTUS45 KTFX 132338
TAFHVR
TAF
KHVR 132338Z 1400/1424 29012KT P6SM SCT060
      TEMPO 1400/1402 29015G24KT
     FM140200 24011KT P6SM FEW150
     FM140900 23012KT P6SM BKN120=



000
FTUS45 KTFX 132338
TAFGTF
TAF
KGTF 132338Z 1400/1424 23015G25KT P6SM SCT090
     FM140200 22014KT P6SM SCT200
     FM140900 23015KT P6SM BKN080
     FM141500 24017G27KT P6SM BKN100=



000
FTUS45 KTFX 132338
TAFBZN
TAF
KBZN 132338Z 1400/1424 29010KT P6SM SCT070
     FM140800 21006KT P6SM VCSH SCT050 OVC070
     FM141400 24011KT P6SM -SHRA SCT030 OVC050 WS020/27025KT=



000
FTUS45 KTFX 132338
TAFCTB
TAF
KCTB 132338Z 1400/1424 26015G25KT P6SM SCT150
     FM140900 27013KT P6SM BKN120
     FM141600 26022G35KT P6SM BKN120=



000
FTUS45 KTFX 132338
TAFLWT
TAF
KLWT 132338Z 1400/1424 28012KT P6SM VCSH SCT035 BKN090
     FM140200 25010KT P6SM SCT120
     FM140900 26012KT P6SM BKN100
     FM141200 26012KT P6SM VCSH SCT050 OVC080=



000
FTUS45 KTFX 132338
TAFHVR
TAF
KHVR 132338Z 1400/1424 29012KT P6SM SCT060
      TEMPO 1400/1402 29015G24KT
     FM140200 24011KT P6SM FEW150
     FM140900 23012KT P6SM BKN120=



000
FTUS45 KTFX 132338
TAFHLN
TAF
KHLN 132338Z 1400/1424 26008KT P6SM BKN060
      TEMPO 1400/1402 26012G24KT
     FM141200 25007KT P6SM VCSH SCT040 OVC060=



000
FTUS45 KTFX 132029 AAB
TAFLWT
TAF AMD
KLWT 132029Z 1320/1418 29018G29KT P6SM VCSH SCT050 BKN080
     FM140000 28012KT P6SM SCT090 BKN150
     FM140700 26012KT P6SM BKN100=



000
FTUS45 KTFX 132029 AAB
TAFHVR
TAF AMD
KHVR 132029Z 1320/1418 28018G30KT P6SM VCSH SCT050 BKN080
     FM140000 29012KT P6SM SCT100 SCT180
     FM140900 23012KT P6SM BKN120=



000
FTUS45 KTFX 132029 AAB
TAFHVR
TAF AMD
KHVR 132029Z 1320/1418 28018G30KT P6SM VCSH SCT050 BKN080
     FM140000 29012KT P6SM SCT100 SCT180
     FM140900 23012KT P6SM BKN120=



000
FTUS45 KTFX 132003 AAA
TAFLWT
TAF AMD
KLWT 132003Z 1320/1418 29018G29KT P6SM BKN090
     FM140000 28012KT P6SM SCT090 BKN150
     FM140700 26012KT P6SM BKN100=



000
FTUS45 KTFX 131938 AAA
TAFHVR
TAF AMD
KHVR 131938Z 1320/1418 28018G30KT P6SM BKN090
     FM140000 29012KT P6SM SCT100 SCT180
     FM140900 23012KT P6SM BKN120=



000
FTUS45 KTFX 131901 AAA
TAFBZN
TAF AMD
KBZN 131901Z 1319/1418 16011KT P6SM VCSH SCT030 BKN090
      WS020/27025KT
     FM132100 28018G30KT P6SM SCT030 BKN090
     FM140100 28008KT P6SM VCSH BKN090=



000
FTUS45 KTFX 131735
TAFBZN
TAF
KBZN 131735Z 1318/1418 26011KT P6SM VCSH SCT030 BKN090
     FM132000 28018G30KT P6SM SCT030 BKN090
     FM140100 28008KT P6SM VCSH BKN090=



000
FTUS45 KTFX 131735
TAFHLN
TAF
KHLN 131735Z 1318/1418 28020G32KT P6SM SCT150
     FM140000 26008KT P6SM SCT060 BKN090=



000
FTUS45 KTFX 131735
TAFLWT
TAF
KLWT 131735Z 1318/1418 29012G22KT P6SM BKN090
     FM140000 28012KT P6SM SCT090 BKN150
     FM140700 26012KT P6SM BKN100=



000
FTUS45 KTFX 131735
TAFHVR
TAF
KHVR 131735Z 1318/1418 22013KT P6SM SCT100 BKN150
     FM132000 28018G30KT P6SM BKN090
     FM140000 29012KT P6SM SCT100 SCT180
     FM140900 23012KT P6SM BKN120=



000
FTUS45 KTFX 131735
TAFCTB
TAF
KCTB 131735Z 1318/1418 26025G38KT P6SM BKN120
     FM140200 27015G25KT P6SM BKN120
     FM141500 26022G35KT P6SM BKN120=



000
FTUS45 KTFX 131735
TAFGTF
TAF
KGTF 131735Z 1318/1418 27022G35KT P6SM SCT150
     FM140000 23015G25KT P6SM SCT090 BKN150
     FM140600 23015G25KT P6SM BKN090=



000
FTUS45 KTFX 131604 AAA
TAFBZN
TAF AMD
KBZN 131604Z 1316/1412 32006KT 6SM -SN BR OVC035
      TEMPO 1316/1318 1/2SM SN FG OVC002
     FM131800 25010KT P6SM VCSH SCT030 BKN060
      TEMPO 1318/1321 5SM -SHRASN BKN030
     FM132100 28014G22KT P6SM SCT040 BKN090
     FM140300 21008KT P6SM BKN120=



000
FTUS45 KTFX 131604 AAA
TAFBZN
TAF AMD
KBZN 131604Z 1316/1412 32006KT 6SM -SN BR OVC035
      TEMPO 1316/1318 1/2SM SN FG OVC002
     FM131800 25010KT P6SM VCSH SCT030 BKN060
      TEMPO 1318/1321 5SM -SHRASN BKN030
     FM132100 28014G22KT P6SM SCT040 BKN090
     FM140300 21008KT P6SM BKN120=



000
FTUS45 KTFX 131501 AAB
TAFHVR
TAF AMD
KHVR 131501Z 1315/1412 22011KT P6SM SCT003 BKN080
     FM131700 26015G25KT P6SM VCSH SCT060 BKN090
     FM140200 24012KT P6SM BKN150=



000
FTUS45 KTFX 131421 AAA
TAFLWT
TAF AMD
KLWT 131421Z 1314/1412 27008KT P6SM -RA OVC050
     FM131700 27018G25KT P6SM VCSH SCT040 BKN070
     FM140300 26013KT P6SM BKN150=



000
FTUS45 KTFX 131421 AAA
TAFLWT
TAF AMD
KLWT 131421Z 1314/1412 27008KT P6SM -RA OVC050
     FM131700 27018G25KT P6SM VCSH SCT040 BKN070
     FM140300 26013KT P6SM BKN150=



000
FTUS45 KTFX 131419 AAA
TAFHVR
TAF AMD
KHVR 131419Z 1314/1412 24006KT P6SM BKN003 OVC100
      TEMPO 1316/1318 26010G20KT SCT003 BKN100
     FM131800 26015G25KT P6SM VCSH SCT060 BKN090
     FM140200 24012KT P6SM BKN150=



000
FTUS45 KTFX 131415 AAA
TAFGTF
TAF AMD
KGTF 131415Z 1314/1412 23018G28KT P6SM SCT040 BKN100
      TEMPO 1314/1317 -SHRA BKN040
     FM131700 26023G35KT P6SM SCT060 BKN120
     FM140300 23018KT P6SM BKN150=



000
FTUS45 KTFX 131413 AAB
TAFHLN
TAF AMD
KHLN 131413Z 1314/1412 26018G28KT P6SM VCSH SCT030 OVC070
      TEMPO 1314/1317 6SM -SHRA BKN030
     FM131800 28022G32KT P6SM SCT080 BKN150
     FM140300 27008KT P6SM BKN150=



000
FTUS45 KTFX 131242 AAA
TAFCTB
TAF AMD
KCTB 131242Z 1313/1412 25025G37KT P6SM SCT060 BKN120
     FM131600 27028G45KT P6SM SCT070 BKN150
     FM140200 26022G32KT P6SM BKN150=



000
FTUS45 KTFX 131242 AAA
TAFCTB
TAF AMD
KCTB 131242Z 1313/1412 25025G37KT P6SM SCT060 BKN120
     FM131600 27028G45KT P6SM SCT070 BKN150
     FM140200 26022G32KT P6SM BKN150=



000
FTUS45 KTFX 131220 AAA
TAFHLN
TAF AMD
KHLN 131220Z 1312/1412 27010KT P6SM SCT030 BKN060
      TEMPO 1312/1315 6SM -SHRA BKN030
     FM131800 28020G28KT P6SM SCT080 BKN150
     FM140300 27008KT P6SM BKN150=



000
FTUS45 KTFX 131220 AAA
TAFHLN
TAF AMD
KHLN 131220Z 1312/1412 27010KT P6SM SCT030 BKN060
      TEMPO 1312/1315 6SM -SHRA BKN030
     FM131800 28020G28KT P6SM SCT080 BKN150
     FM140300 27008KT P6SM BKN150=



000
FTUS45 KTFX 131136
TAFCTB
TAF
KCTB 131136Z 1312/1412 24010KT P6SM SCT060 BKN120
     FM131600 27025G40KT P6SM SCT070 BKN150
      TEMPO 1317/1321 27030G45KT
     FM140200 26022G32KT P6SM BKN150=



000
FTUS45 KTFX 131136
TAFHVR
TAF
KHVR 131136Z 1312/1412 VRB04KT 1/4SM FZFG BKN002
      TEMPO 1312/1315 1SM BR
     FM131500 24008KT 5SM BR SCT010 BKN060
     FM131800 26015G25KT P6SM VCSH SCT060 BKN090
     FM140200 24012KT P6SM BKN150=



000
FTUS45 KTFX 131136
TAFLWT
TAF
KLWT 131136Z 1312/1412 VRB05KT P6SM SCT120
     FM131700 27018G25KT P6SM VCSH SCT040 BKN070
     FM140300 26013KT P6SM BKN150=



000
FTUS45 KTFX 131136
TAFHLN
TAF
KHLN 131136Z 1312/1412 24005KT P6SM SCT070 BKN120
     FM131400 27006KT P6SM SCT040 BKN070
      TEMPO 1314/1318 6SM -SHRASN BKN040
     FM131800 28020G28KT P6SM SCT080 BKN150
     FM140300 27008KT P6SM BKN150=



000
FTUS45 KTFX 131136
TAFGTF
TAF
KGTF 131136Z 1312/1412 29008KT P6SM SCT040 BKN080
      TEMPO 1314/1317 -SHRA BKN040
     FM131700 26023G35KT P6SM SCT060 BKN120
     FM140300 23018KT P6SM BKN150=



000
FTUS45 KTFX 131136
TAFBZN
TAF
KBZN 131136Z 1312/1412 VRB05KT P6SM SCT090 BKN150
      TEMPO 1312/1315 4SM BR
     FM131500 25010KT P6SM VCSH SCT030 BKN060
      TEMPO 1317/1321 5SM -SHRASN BKN030
     FM132100 28014G22KT P6SM SCT040 BKN090
     FM140300 21008KT P6SM BKN120=



000
FTUS45 KTFX 131136
TAFCTB
TAF
KCTB 131136Z 1312/1412 24010KT P6SM SCT060 BKN120
     FM131600 27025G40KT P6SM SCT070 BKN150
      TEMPO 1317/1321 27030G45KT
     FM140200 26022G32KT P6SM BKN150=



000
FTUS45 KTFX 131136
TAFBZN
TAF
KBZN 131136Z 1312/1412 VRB05KT P6SM SCT090 BKN150
      TEMPO 1312/1315 4SM BR
     FM131500 25010KT P6SM VCSH SCT030 BKN060
      TEMPO 1317/1321 5SM -SHRASN BKN030
     FM132100 28014G22KT P6SM SCT040 BKN090
     FM140300 21008KT P6SM BKN120=



000
FTUS45 KTFX 131136
TAFLWT
TAF
KLWT 131136Z 1312/1412 VRB05KT P6SM SCT120
     FM131700 27018G25KT P6SM VCSH SCT040 BKN070
     FM140300 26013KT P6SM BKN150=



000
FTUS45 KTFX 131136
TAFHLN
TAF
KHLN 131136Z 1312/1412 24005KT P6SM SCT070 BKN120
     FM131400 27006KT P6SM SCT040 BKN070
      TEMPO 1314/1318 6SM -SHRASN BKN040
     FM131800 28020G28KT P6SM SCT080 BKN150
     FM140300 27008KT P6SM BKN150=



000
FTUS45 KTFX 131136
TAFHVR
TAF
KHVR 131136Z 1312/1412 VRB04KT 1/4SM FZFG BKN002
      TEMPO 1312/1315 1SM BR
     FM131500 24008KT 5SM BR SCT010 BKN060
     FM131800 26015G25KT P6SM VCSH SCT060 BKN090
     FM140200 24012KT P6SM BKN150=



000
FTUS45 KTFX 131136
TAFGTF
TAF
KGTF 131136Z 1312/1412 29008KT P6SM SCT040 BKN080
      TEMPO 1314/1317 -SHRA BKN040
     FM131700 26023G35KT P6SM SCT060 BKN120
     FM140300 23018KT P6SM BKN150=



000
FTUS45 KTFX 130908 AAB
TAFHVR
TAF AMD
KHVR 130908Z 1309/1406 VRB04KT 3SM BR BKN003
      TEMPO 1309/1312 3/4SM BR
     FM131200 24011KT P6SM SCT040 BKN060
     FM132000 27015G25KT P6SM VCSH SCT060 BKN090
     FM140000 30015G25KT P6SM SCT090=



000
FTUS45 KTFX 130726 AAA
TAFHVR
TAF AMD
KHVR 130726Z 1307/1406 VRB04KT 6SM BR BKN006
     FM131300 24011KT P6SM SCT040 BKN060
     FM132000 27015G25KT P6SM VCSH SCT060 BKN090
     FM140000 30015G25KT P6SM SCT090=



000
FTUS45 KTFX 130530
TAFHLN
TAF
KHLN 130530Z 1306/1406 VRB05KT P6SM SCT070
     FM131000 27011KT P6SM VCSH SCT025 OVC040
      TEMPO 1311/1315 5SM -RASN BR BKN025
     FM131700 28015G25KT P6SM SCT040 BKN070
     FM132300 28012KT P6SM SCT150=



000
FTUS45 KTFX 130530
TAFGTF
TAF
KGTF 130530Z 1306/1406 21011KT P6SM SCT150
     FM131000 22013G20KT P6SM SCT040 OVC070
     FM131600 24020G32KT P6SM SCT070 BKN120
     FM140000 25018G26KT P6SM BKN150=



000
FTUS45 KTFX 130530
TAFBZN
TAF
KBZN 130530Z 1306/1406 VRB05KT P6SM SCT070 BKN120
     FM131400 24010KT P6SM VCSH SCT020 OVC035 PROB30 1315/1320 4SM
      -RASN BR BKN020
     FM132000 28014G22KT P6SM SCT035 BKN060
     FM140300 21008KT P6SM SCT150=



000
FTUS45 KTFX 130530
TAFCTB
TAF
KCTB 130530Z 1306/1406 23009KT P6SM SCT180
     FM131200 25020G32KT P6SM SCT060 BKN100
     FM131600 27025G40KT P6SM SCT070 BKN150
     FM140000 26024G34KT P6SM SCT200=



000
FTUS45 KTFX 130530
TAFLWT
TAF
KLWT 130530Z 1306/1406 23011KT P6SM SCT080 BKN120
     FM131200 24011KT P6SM VCSH SCT025 OVC040
      TEMPO 1314/1317 -RA BKN025
     FM131800 27015G25KT P6SM VCSH SCT040 BKN060
     FM140000 27015KT P6SM BKN150=



000
FTUS45 KTFX 130530
TAFHLN
TAF
KHLN 130530Z 1306/1406 VRB05KT P6SM SCT070
     FM131000 27011KT P6SM VCSH SCT025 OVC040
      TEMPO 1311/1315 5SM -RASN BR BKN025
     FM131700 28015G25KT P6SM SCT040 BKN070
     FM132300 28012KT P6SM SCT150=



000
FTUS45 KTFX 130530
TAFHVR
TAF
KHVR 130530Z 1306/1406 08006KT P6SM VCFG SCT080
     FM131300 24011KT P6SM SCT040 BKN060
     FM132000 27015G25KT P6SM VCSH SCT060 BKN090
     FM140000 30015G25KT P6SM SCT090=



000
FTUS45 KTFX 130530
TAFCTB
TAF
KCTB 130530Z 1306/1406 23009KT P6SM SCT180
     FM131200 25020G32KT P6SM SCT060 BKN100
     FM131600 27025G40KT P6SM SCT070 BKN150
     FM140000 26024G34KT P6SM SCT200=



000
FTUS45 KTFX 130530
TAFLWT
TAF
KLWT 130530Z 1306/1406 23011KT P6SM SCT080 BKN120
     FM131200 24011KT P6SM VCSH SCT025 OVC040
      TEMPO 1314/1317 -RA BKN025
     FM131800 27015G25KT P6SM VCSH SCT040 BKN060
     FM140000 27015KT P6SM BKN150=



000
FTUS45 KTFX 130530
TAFGTF
TAF
KGTF 130530Z 1306/1406 21011KT P6SM SCT150
     FM131000 22013G20KT P6SM SCT040 OVC070
     FM131600 24020G32KT P6SM SCT070 BKN120
     FM140000 25018G26KT P6SM BKN150=



000
FTUS45 KTFX 130530
TAFBZN
TAF
KBZN 130530Z 1306/1406 VRB05KT P6SM SCT070 BKN120
     FM131400 24010KT P6SM VCSH SCT020 OVC035 PROB30 1315/1320 4SM
      -RASN BR BKN020
     FM132000 28014G22KT P6SM SCT035 BKN060
     FM140300 21008KT P6SM SCT150=



000
FTUS45 KTFX 130530
TAFHVR
TAF
KHVR 130530Z 1306/1406 08006KT P6SM VCFG SCT080
     FM131300 24011KT P6SM SCT040 BKN060
     FM132000 27015G25KT P6SM VCSH SCT060 BKN090
     FM140000 30015G25KT P6SM SCT090=



000
FTUS45 KTFX 130402 AAA
TAFLWT
TAF AMD
KLWT 130402Z 1304/1324 23011KT P6SM BKN140
     FM130600 22011KT P6SM SCT060 BKN100
     FM131200 24011KT P6SM VCSH SCT025 OVC040 PROB30 1313/1318 -RA
      BKN025
     FM131800 27015G25KT P6SM VCSH SCT040 BKN060=



000
FTUS45 KTFX 130400 AAA
TAFCTB
TAF AMD
KCTB 130400Z 1304/1324 25009KT P6SM SCT180
     FM131200 25020G32KT P6SM SCT060 BKN100
     FM131600 27025G40KT P6SM SCT070 BKN150=



000
FTUS45 KTFX 130358 AAA
TAFHVR
TAF AMD
KHVR 130358Z 1304/1324 07006KT P6SM VCFG BKN080 BKN180
      TEMPO 1305/1307 4SM BR BKN008
     FM130800 22010KT P6SM SCT070 BKN150
     FM131300 24011KT P6SM VCSH SCT040 BKN060
     FM131800 27015G25KT P6SM VCSH SCT060 BKN090=



000
FTUS45 KTFX 122355 CCA
TAFCTB
TAF COR
KCTB 122355Z 1300/1324 24014G22KT P6SM SCT070 BKN180
     FM131200 25020G32KT P6SM SCT060 BKN100
     FM131600 27025G40KT P6SM SCT070 BKN150=



000
FTUS45 KTFX 122355 CCA
TAFCTB
TAF COR
KCTB 122355Z 1300/1324 24014G22KT P6SM SCT070 BKN180
     FM131200 25020G32KT P6SM SCT060 BKN100
     FM131600 27025G40KT P6SM SCT070 BKN150=



000
FTUS45 KTFX 122332
TAFLWT
TAF
KLWT 122332Z 1300/1324 13011KT P6SM SCT080 BKN140
     FM130600 22011KT P6SM SCT060 BKN100
     FM131200 24011KT P6SM VCSH SCT025 OVC040 PROB30 1313/1318 -RA
      BKN025
     FM131800 27015G25KT P6SM VCSH SCT040 BKN060=



000
FTUS45 KTFX 122332
TAFGTF
TAF
KGTF 122332Z 1300/1324 21011KT P6SM SCT080 BKN140
     FM131000 22013G20KT P6SM VCSH SCT040 OVC070
     FM131600 24020G32KT P6SM SCT070 BKN120=



000
FTUS45 KTFX 122332
TAFHLN
TAF
KHLN 122332Z 1300/1324 VRB05KT P6SM SCT070 BKN120
     FM130600 VRB05KT P6SM VCSH SCT040 BKN070
     FM131000 27011KT P6SM VCSH SCT025 OVC040 PROB30 1311/1316 5SM
      -RASN BR BKN025
     FM131700 28015G25KT P6SM VCSH SCT040 BKN070=



000
FTUS45 KTFX 122332
TAFBZN
TAF
KBZN 122332Z 1300/1324 VRB05KT P6SM SCT070 BKN120
     FM130700 VRB05KT P6SM VCSH SCT040 BKN070
     FM131200 24010KT P6SM VCSH SCT020 OVC035 PROB30 1314/1319 4SM
      -RASN BR BKN020
     FM131900 28014G22KT P6SM VCSH SCT035 BKN060=



000
FTUS45 KTFX 122332
TAFCTB
TAF
KCTB 122332Z 1300/1324 15011KT P6SM SCT070 BKN180
      TEMPO 1300/1302 21013G22KT
     FM130200 24011G21KT P6SM SCT070 BKN180
     FM131200 25020G32KT P6SM SCT060 BKN100
     FM131600 27025G40KT P6SM SCT070 BKN150=



000
FTUS45 KTFX 122332
TAFHVR
TAF
KHVR 122332Z 1300/1324 08015KT P6SM SCT070 BKN150
     FM130300 11006KT P6SM VCFG FEW010 SCT080 BKN180
      TEMPO 1304/1307 4SM BR BKN008
     FM130800 22010KT P6SM SCT070 BKN150
     FM131300 24011KT P6SM VCSH SCT040 BKN060
     FM131800 27015G25KT P6SM VCSH SCT060 BKN090=



000
FTUS45 KTFX 122332
TAFHLN
TAF
KHLN 122332Z 1300/1324 VRB05KT P6SM SCT070 BKN120
     FM130600 VRB05KT P6SM VCSH SCT040 BKN070
     FM131000 27011KT P6SM VCSH SCT025 OVC040 PROB30 1311/1316 5SM
      -RASN BR BKN025
     FM131700 28015G25KT P6SM VCSH SCT040 BKN070=



000
FTUS45 KTFX 122332
TAFBZN
TAF
KBZN 122332Z 1300/1324 VRB05KT P6SM SCT070 BKN120
     FM130700 VRB05KT P6SM VCSH SCT040 BKN070
     FM131200 24010KT P6SM VCSH SCT020 OVC035 PROB30 1314/1319 4SM
      -RASN BR BKN020
     FM131900 28014G22KT P6SM VCSH SCT035 BKN060=



000
FTUS45 KTFX 122332
TAFGTF
TAF
KGTF 122332Z 1300/1324 21011KT P6SM SCT080 BKN140
     FM131000 22013G20KT P6SM VCSH SCT040 OVC070
     FM131600 24020G32KT P6SM SCT070 BKN120=



000
FTUS45 KTFX 122332
TAFCTB
TAF
KCTB 122332Z 1300/1324 15011KT P6SM SCT070 BKN180
      TEMPO 1300/1302 21013G22KT
     FM130200 24011G21KT P6SM SCT070 BKN180
     FM131200 25020G32KT P6SM SCT060 BKN100
     FM131600 27025G40KT P6SM SCT070 BKN150=



000
FTUS45 KTFX 122332
TAFLWT
TAF
KLWT 122332Z 1300/1324 13011KT P6SM SCT080 BKN140
     FM130600 22011KT P6SM SCT060 BKN100
     FM131200 24011KT P6SM VCSH SCT025 OVC040 PROB30 1313/1318 -RA
      BKN025
     FM131800 27015G25KT P6SM VCSH SCT040 BKN060=



000
FTUS45 KTFX 122332
TAFHVR
TAF
KHVR 122332Z 1300/1324 08015KT P6SM SCT070 BKN150
     FM130300 11006KT P6SM VCFG FEW010 SCT080 BKN180
      TEMPO 1304/1307 4SM BR BKN008
     FM130800 22010KT P6SM SCT070 BKN150
     FM131300 24011KT P6SM VCSH SCT040 BKN060
     FM131800 27015G25KT P6SM VCSH SCT060 BKN090=



000
FTUS45 KTFX 122201 AAB
TAFCTB
TAF AMD
KCTB 122201Z 1222/1318 14014KT P6SM SCT070
      TEMPO 1222/1224 19014G24KT
     FM130000 24015G28KT P6SM SCT050 BKN180
     FM131300 26025G38KT P6SM SCT050 BKN100=



000
FTUS45 KTFX 122145 AAA
TAFHVR
TAF AMD
KHVR 122145Z 1222/1318 07016KT P6SM SCT050 OVC080
     FM130300 17006KT P6SM SCT100 BKN180
     FM131500 26010KT P6SM BKN120=



000
FTUS45 KTFX 121943 AAA
TAFCTB
TAF AMD
KCTB 121943Z 1220/1318 14014KT P6SM SCT010 BKN070
     FM122200 24015G28KT P6SM SCT050 BKN180
     FM131300 26025G38KT P6SM SCT050 BKN100=



000
FTUS45 KTFX 121735
TAFGTF
TAF
KGTF 121735Z 1218/1318 11009KT P6SM OVC060
     FM122100 19010KT P6SM SCT080 BKN180
     FM131100 21012KT P6SM VCSH SCT030 OVC050
     FM131600 24020G32KT P6SM SCT050 BKN090=



000
FTUS45 KTFX 121735
TAFHLN
TAF
KHLN 121735Z 1218/1318 VRB06KT P6SM OVC050
     FM122000 27006KT P6SM SCT060 BKN180
     FM130900 VRB06KT P6SM OVC040 PROB30 1312/1314 5SM -RASN BR
      OVC025
     FM131400 27012G20KT P6SM BKN050 PROB30 1314/1318 3SM -SN
      BKN025=



000
FTUS45 KTFX 121735
TAFLWT
TAF
KLWT 121735Z 1218/1318 10010KT P6SM OVC040
     FM122100 16010KT P6SM SCT040 BKN090
     FM131400 24012KT P6SM VCSH OVC035=



000
FTUS45 KTFX 121735
TAFCTB
TAF
KCTB 121735Z 1218/1318 13011KT 6SM BR OVC004
     FM122000 18010KT P6SM SCT005 BKN040
     FM122200 24015G28KT P6SM SCT050 BKN180
     FM131300 26025G38KT P6SM SCT050 BKN100=



000
FTUS45 KTFX 121735
TAFBZN
TAF
KBZN 121735Z 1218/1318 VRB06KT P6SM OVC070
     FM122000 VRB06KT P6SM SCT070 BKN150
     FM130600 16005KT P6SM BKN120
     FM131500 20006KT 2SM -SN OVC010=



000
FTUS45 KTFX 121735
TAFHVR
TAF
KHVR 121735Z 1218/1318 08015G25KT P6SM OVC080
     FM130300 17006KT P6SM SCT100 BKN180
     FM131500 26010KT P6SM BKN120=



000
FTUS45 KTFX 121709 AAB
TAFHVR
TAF AMD
KHVR 121709Z 1217/1312 09015G25KT P6SM BKN006 OVC080
     FM121800 09012G22KT P6SM SCT015 BKN040
      TEMPO 1220/1222 09011KT P6SM BKN015
     FM130300 08008KT P6SM BKN100
     FM130600 12006KT P6SM BKN180=



000
FTUS45 KTFX 121709 AAB
TAFHVR
TAF AMD
KHVR 121709Z 1217/1312 09015G25KT P6SM BKN006 OVC080
     FM121800 09012G22KT P6SM SCT015 BKN040
      TEMPO 1220/1222 09011KT P6SM BKN015
     FM130300 08008KT P6SM BKN100
     FM130600 12006KT P6SM BKN180=



000
FTUS45 KTFX 121531 AAA
TAFCTB
TAF AMD
KCTB 121531Z 1216/1312 12010KT P6SM VCSH OVC007
      TEMPO 1217/1219 P6SM SCT009 BKN045
     FM121900 22011KT P6SM SCT050 BKN100
     FM130200 24015KT P6SM BKN120=



000
FTUS45 KTFX 121335 AAA
TAFHVR
TAF AMD
KHVR 121335Z 1214/1312 07011KT 3SM BR OVC004
      TEMPO 1214/1218 BKN015
     FM121800 10009KT P6SM SCT015 BKN040
      TEMPO 1220/1222 09011KT P6SM BKN015
     FM130300 08008KT P6SM BKN100
     FM130600 12006KT P6SM BKN180=



000
FTUS45 KTFX 121140
TAFBZN
TAF
KBZN 121140Z 1212/1312 21005KT P6SM BKN050 BKN090
     FM121800 VRB05KT P6SM BKN070 BKN120
     FM130300 15005KT P6SM SCT150=



000
FTUS45 KTFX 121140
TAFHLN
TAF
KHLN 121140Z 1212/1312 VRB05KT P6SM VCSH SCT030 BKN060
      TEMPO 1212/1215 5SM -RASN BKN030
     FM121800 VRB05KT P6SM BKN070 BKN100
     FM130300 24006KT P6SM BKN120=



000
FTUS45 KTFX 121140
TAFGTF
TAF
KGTF 121140Z 1212/1312 VRB05KT P6SM VCSH SCT040 BKN070
     FM121400 10005KT P6SM VCSH SCT025 BKN045
     FM121800 21008KT P6SM SCT060 BKN090
     FM130300 22014KT P6SM BKN120=



000
FTUS45 KTFX 121140
TAFLWT
TAF
KLWT 121140Z 1212/1312 12006KT P6SM SCT040 BKN090
      TEMPO 1212/1215 5SM -RASN BKN040
     FM121900 19010KT P6SM SCT030 BKN060
     FM130200 24007KT P6SM SCT060 BKN120=



000
FTUS45 KTFX 121140
TAFBZN
TAF
KBZN 121140Z 1212/1312 21005KT P6SM BKN050 BKN090
     FM121800 VRB05KT P6SM BKN070 BKN120
     FM130300 15005KT P6SM SCT150=



000
FTUS45 KTFX 121140
TAFCTB
TAF
KCTB 121140Z 1212/1312 09007KT P6SM VCSH SCT045 BKN080
      TEMPO 1212/1215 -RASN BKN045
     FM121800 22011KT P6SM SCT050 BKN100
     FM130200 24015KT P6SM BKN120=



000
FTUS45 KTFX 121140
TAFHVR
TAF
KHVR 121140Z 1212/1312 09005KT 5SM BR SCT015 BKN060
      TEMPO 1212/1215 BKN015
     FM121800 10009KT P6SM SCT040 BKN070
     FM130300 08008KT P6SM BKN060=



000
FTUS45 KTFX 121140
TAFCTB
TAF
KCTB 121140Z 1212/1312 09007KT P6SM VCSH SCT045 BKN080
      TEMPO 1212/1215 -RASN BKN045
     FM121800 22011KT P6SM SCT050 BKN100
     FM130200 24015KT P6SM BKN120=



000
FTUS45 KTFX 121140
TAFLWT
TAF
KLWT 121140Z 1212/1312 12006KT P6SM SCT040 BKN090
      TEMPO 1212/1215 5SM -RASN BKN040
     FM121900 19010KT P6SM SCT030 BKN060
     FM130200 24007KT P6SM SCT060 BKN120=



000
FTUS45 KTFX 121140
TAFHLN
TAF
KHLN 121140Z 1212/1312 VRB05KT P6SM VCSH SCT030 BKN060
      TEMPO 1212/1215 5SM -RASN BKN030
     FM121800 VRB05KT P6SM BKN070 BKN100
     FM130300 24006KT P6SM BKN120=



000
FTUS45 KTFX 121140
TAFGTF
TAF
KGTF 121140Z 1212/1312 VRB05KT P6SM VCSH SCT040 BKN070
     FM121400 10005KT P6SM VCSH SCT025 BKN045
     FM121800 21008KT P6SM SCT060 BKN090
     FM130300 22014KT P6SM BKN120=



000
FTUS45 KTFX 121140
TAFHVR
TAF
KHVR 121140Z 1212/1312 09005KT 5SM BR SCT015 BKN060
      TEMPO 1212/1215 BKN015
     FM121800 10009KT P6SM SCT040 BKN070
     FM130300 08008KT P6SM BKN060=



000
FTUS45 KTFX 120906 AAC
TAFBZN
TAF AMD
KBZN 120906Z 1209/1306 VRB05KT P6SM OVC060
      TEMPO 1209/1212 5SM -RASN SCT035 OVC050
     FM121800 VRB05KT P6SM BKN070=



000
FTUS45 KTFX 120905 AAB
TAFBZN
TAF AMD
KBZN 120905Z 1209/1306 VRB05KT P6SM OVC060
      TEMPO 1209/1212 5SM -RASN SCT035 OVC050
     FM121800 VRB05KT P6SM BKN070=



000
FTUS45 KTFX 120905 AAA
TAFBZN
TAF AMD
KBZN 120905Z 1209/1306 VRB05KT P6SM OVC050
      TEMPO 1209/1212 5SM -RASN SCT035 OVC050
     FM121800 VRB05KT P6SM BKN070=



000
FTUS45 KTFX 120857 AAB
TAFHVR
TAF AMD
KHVR 120857Z 1209/1306 00000KT 5SM BR BKN020
     FM121000 11009KT 3SM BR OVC015 PROB30 1219/1222 1 1/2SM -RASN
      OVC015
     FM122200 12011KT P6SM OVC040=



000
FTUS45 KTFX 120857 AAB
TAFHVR
TAF AMD
KHVR 120857Z 1209/1306 00000KT 5SM BR BKN020
     FM121000 11009KT 3SM BR OVC015 PROB30 1219/1222 1 1/2SM -RASN
      OVC015
     FM122200 12011KT P6SM OVC040=



000
FTUS45 KTFX 120714 AAA
TAFHLN
TAF AMD
KHLN 120714Z 1207/1306 VRB05KT P6SM VCSH OVC050
      TEMPO 1210/1214 5SM -RASN SCT035 OVC050
     FM122100 25005KT P6SM BKN070=



000
FTUS45 KTFX 120714 AAA
TAFHLN
TAF AMD
KHLN 120714Z 1207/1306 VRB05KT P6SM VCSH OVC050
      TEMPO 1210/1214 5SM -RASN SCT035 OVC050
     FM122100 25005KT P6SM BKN070=



000
FTUS45 KTFX 120649 AAA
TAFHVR
TAF AMD
KHVR 120649Z 1207/1306 00000KT 6SM BR BKN025
     FM120900 11009KT 3SM BR OVC015 PROB30 1219/1222 1 1/2SM -RASN
      OVC015
     FM122200 12011KT P6SM OVC040=



000
FTUS45 KTFX 120649 AAA
TAFHVR
TAF AMD
KHVR 120649Z 1207/1306 00000KT 6SM BR BKN025
     FM120900 11009KT 3SM BR OVC015 PROB30 1219/1222 1 1/2SM -RASN
      OVC015
     FM122200 12011KT P6SM OVC040=



000
FTUS45 KTFX 120550 CCA
TAFBZN
TAF COR
KBZN 120550Z 1206/1306 VRB04KT P6SM OVC080
     FM120900 VRB05KT P6SM BKN035 OVC060
      TEMPO 1209/1212 5SM -RASN OVC035
     FM121800 VRB05KT P6SM BKN070=



000
FTUS45 KTFX 120542
TAFBZN
TAF
KBZN 120542Z 1206/1306 VRB04KT P6SM OVC080
     FM120900 VRB05KT P6SM BKN035 OVC060
      TEMPO 1209/1212 5SM -RASN OVC050
     FM121800 VRB05KT P6SM BKN070=



000
FTUS45 KTFX 120542
TAFGTF
TAF
KGTF 120542Z 1206/1306 VRB05KT P6SM BKN120
     FM120900 VRB05KT P6SM SCT040 BKN060
     FM121300 12010KT P6SM VCSH SCT025 OVC040
     FM121600 21015KT P6SM SCT060 BKN090
     FM122200 24012KT P6SM BKN120=



000
FTUS45 KTFX 120542
TAFLWT
TAF
KLWT 120542Z 1206/1306 VRB05KT P6SM BKN120
     FM121200 12007KT P6SM SCT025 BKN050
      TEMPO 1218/1222 15011KT 4SM -RASN SCT025 OVC040
     FM122200 19011KT P6SM SCT030 BKN060=



000
FTUS45 KTFX 120542
TAFCTB
TAF
KCTB 120542Z 1206/1306 18004KT P6SM SCT060 BKN120
     FM120900 VRB05KT P6SM SCT035 BKN060
     FM121300 VRB06KT P6SM VCSH SCT030 BKN050
     FM122200 21015KT P6SM SCT050=



000
FTUS45 KTFX 120542
TAFHVR
TAF
KHVR 120542Z 1206/1306 VRB05KT P6SM BKN120
     FM121400 08011KT P6SM SCT020 BKN040
     FM121600 11011KT 3SM BR OVC015 PROB30 1219/1222 1 1/2SM -RASN
      OVC015
     FM122200 12011KT P6SM OVC040=



000
FTUS45 KTFX 120542
TAFHLN
TAF
KHLN 120542Z 1206/1306 VRB05KT P6SM OVC070
      TEMPO 1211/1214 5SM -RASN SCT035 OVC050
     FM122100 25005KT P6SM BKN070=



000
FTUS45 KTFX 120542
TAFLWT
TAF
KLWT 120542Z 1206/1306 VRB05KT P6SM BKN120
     FM121200 12007KT P6SM SCT025 BKN050
      TEMPO 1218/1222 15011KT 4SM -RASN SCT025 OVC040
     FM122200 19011KT P6SM SCT030 BKN060=



000
FTUS45 KTFX 120542
TAFCTB
TAF
KCTB 120542Z 1206/1306 18004KT P6SM SCT060 BKN120
     FM120900 VRB05KT P6SM SCT035 BKN060
     FM121300 VRB06KT P6SM VCSH SCT030 BKN050
     FM122200 21015KT P6SM SCT050=



000
FTUS45 KTFX 120542
TAFBZN
TAF
KBZN 120542Z 1206/1306 VRB04KT P6SM OVC080
     FM120900 VRB05KT P6SM BKN035 OVC060
      TEMPO 1209/1212 5SM -RASN OVC050
     FM121800 VRB05KT P6SM BKN070=



000
FTUS45 KTFX 120542
TAFHVR
TAF
KHVR 120542Z 1206/1306 VRB05KT P6SM BKN120
     FM121400 08011KT P6SM SCT020 BKN040
     FM121600 11011KT 3SM BR OVC015 PROB30 1219/1222 1 1/2SM -RASN
      OVC015
     FM122200 12011KT P6SM OVC040=



000
FTUS45 KTFX 120542
TAFHLN
TAF
KHLN 120542Z 1206/1306 VRB05KT P6SM OVC070
      TEMPO 1211/1214 5SM -RASN SCT035 OVC050
     FM122100 25005KT P6SM BKN070=



000
FTUS45 KTFX 120542
TAFGTF
TAF
KGTF 120542Z 1206/1306 VRB05KT P6SM BKN120
     FM120900 VRB05KT P6SM SCT040 BKN060
     FM121300 12010KT P6SM VCSH SCT025 OVC040
     FM121600 21015KT P6SM SCT060 BKN090
     FM122200 24012KT P6SM BKN120=



000
FTUS45 KTFX 120008 CCA
TAFHVR
TAF COR
KHVR 120008Z 1200/1224 VRB05KT P6SM SCT025 BKN080
      TEMPO 1200/1203 BKN025
     FM121300 08011KT P6SM VCSH SCT020 BKN040
     FM121600 11011KT 5SM -SNRA BR OVC015=



000
FTUS45 KTFX 120008 CCA
TAFHVR
TAF COR
KHVR 120008Z 1200/1224 VRB05KT P6SM SCT025 BKN080
      TEMPO 1200/1203 BKN025
     FM121300 08011KT P6SM VCSH SCT020 BKN040
     FM121600 11011KT 5SM -SNRA BR OVC015=



000
FTUS45 KTFX 112341
TAFHLN
TAF
KHLN 112341Z 1200/1224 VRB05KT P6SM SCT060 BKN120
     FM120600 VRB05KT P6SM VCSH SCT030 OVC050 PROB30 1209/1215 -RASN
     FM121700 VRB05KT P6SM SCT040 BKN070=



000
FTUS45 KTFX 112341
TAFCTB
TAF
KCTB 112341Z 1200/1224 02011KT P6SM SCT070 BKN130
     FM120300 VRB05KT P6SM SCT040 BKN060
     FM121000 15010KT P6SM VCSH SCT030 BKN050
     FM121800 21015KT P6SM SCT070 BKN130=



000
FTUS45 KTFX 112341
TAFBZN
TAF
KBZN 112341Z 1200/1224 VRB05KT P6SM SCT060 BKN120
     FM120700 VRB05KT P6SM VCSH SCT035 OVC060 PROB30 1210/1216 -RASN
     FM121800 VRB05KT P6SM SCT040 BKN070=



000
FTUS45 KTFX 112341
TAFCTB
TAF
KCTB 112341Z 1200/1224 02011KT P6SM SCT070 BKN130
     FM120300 VRB05KT P6SM SCT040 BKN060
     FM121000 15010KT P6SM VCSH SCT030 BKN050
     FM121800 21015KT P6SM SCT070 BKN130=



000
FTUS45 KTFX 112341
TAFGTF
TAF
KGTF 112341Z 1200/1224 VRB05KT P6SM SCT060 BKN120
     FM120900 VRB05KT P6SM VCSH SCT040 BKN060
     FM121200 12010KT P6SM -RA SCT025 OVC040
     FM121800 21015KT P6SM SCT060 BKN130=



000
FTUS45 KTFX 112341
TAFGTF
TAF
KGTF 112341Z 1200/1224 VRB05KT P6SM SCT060 BKN120
     FM120900 VRB05KT P6SM VCSH SCT040 BKN060
     FM121200 12010KT P6SM -RA SCT025 OVC040
     FM121800 21015KT P6SM SCT060 BKN130=



000
FTUS45 KTFX 112341
TAFHLN
TAF
KHLN 112341Z 1200/1224 VRB05KT P6SM SCT060 BKN120
     FM120600 VRB05KT P6SM VCSH SCT030 OVC050 PROB30 1209/1215 -RASN
     FM121700 VRB05KT P6SM SCT040 BKN070=



000
FTUS45 KTFX 112341
TAFHVR
TAF
KHVR 112341Z 1200/1224 31010KT P6SM BKN020 BKN080
     FM120500 06010KT P6SM SCT025 BKN070
     FM121300 08011KT P6SM VCSH SCT020 BKN040
     FM121600 11011KT 5SM -SNRA BR OVC015=



000
FTUS45 KTFX 112341
TAFHVR
TAF
KHVR 112341Z 1200/1224 31010KT P6SM BKN020 BKN080
     FM120500 06010KT P6SM SCT025 BKN070
     FM121300 08011KT P6SM VCSH SCT020 BKN040
     FM121600 11011KT 5SM -SNRA BR OVC015=



000
FTUS45 KTFX 112341
TAFBZN
TAF
KBZN 112341Z 1200/1224 VRB05KT P6SM SCT060 BKN120
     FM120700 VRB05KT P6SM VCSH SCT035 OVC060 PROB30 1210/1216 -RASN
     FM121800 VRB05KT P6SM SCT040 BKN070=



000
FTUS45 KTFX 112341
TAFLWT
TAF
KLWT 112341Z 1200/1224 VRB05KT P6SM SCT050 BKN130
     FM121200 12007KT P6SM VCSH SCT025 BKN050
     FM121500 15011KT 6SM -RASN BR OVC025
     FM122100 19011KT P6SM VCSH SCT030 BKN060=



000
FTUS45 KTFX 112341
TAFLWT
TAF
KLWT 112341Z 1200/1224 VRB05KT P6SM SCT050 BKN130
     FM121200 12007KT P6SM VCSH SCT025 BKN050
     FM121500 15011KT 6SM -RASN BR OVC025
     FM122100 19011KT P6SM VCSH SCT030 BKN060=



000
FTUS45 KTFX 112144 AAA
TAFHVR
TAF AMD
KHVR 112144Z 1122/1218 31010KT P6SM SCT015 BKN080
      TEMPO 1122/1202 BKN015
     FM120900 06010KT P6SM BKN015
     FM121500 10015KT 5SM -SNRA BKN015=



000
FTUS45 KTFX 112139 AAB
TAFGTF
TAF AMD
KGTF 112139Z 1122/1218 28011KT P6SM SCT050 BKN200
     FM120000 VRB05KT P6SM SCT040 BKN080
     FM121200 16010KT 5SM -RASN BKN040=



000
FTUS45 KTFX 111945 AAA
TAFCTB
TAF AMD
KCTB 111945Z 1120/1218 31015KT P6SM SCT200
      TEMPO 1120/1123 02017KT
     FM120300 VRB05KT P6SM SCT030 BKN070
     FM121500 13010KT 5SM -SNRA SCT025 OVC040=



000
FTUS45 KTFX 111842 AAA
TAFGTF
TAF AMD
KGTF 111842Z 1119/1218 25014G22KT P6SM SCT050 BKN200
     FM120000 VRB05KT P6SM SCT040 BKN080
     FM121200 16010KT 5SM -RASN BKN040=



000
FTUS45 KTFX 111740
TAFHLN
TAF
KHLN 111740Z 1118/1218 23010KT P6SM SCT040 BKN200
     FM120800 VRB05KT P6SM VCSH SCT010 BKN040
     FM121600 VRB05KT P6SM SCT040 BKN070=



000
FTUS45 KTFX 111740
TAFBZN
TAF
KBZN 111740Z 1118/1218 VRB05KT P6SM SCT040 BKN150
     FM120600 15005KT P6SM VCSH BKN040
     FM121400 19005KT P6SM SCT040 BKN150=



000
FTUS45 KTFX 111740
TAFBZN
TAF
KBZN 111740Z 1118/1218 VRB05KT P6SM SCT040 BKN150
     FM120600 15005KT P6SM VCSH BKN040
     FM121400 19005KT P6SM SCT040 BKN150=



000
FTUS45 KTFX 111740
TAFHLN
TAF
KHLN 111740Z 1118/1218 23010KT P6SM SCT040 BKN200
     FM120800 VRB05KT P6SM VCSH SCT010 BKN040
     FM121600 VRB05KT P6SM SCT040 BKN070=



000
FTUS45 KTFX 111739
TAFGTF
TAF
KGTF 111739Z 1118/1218 28015KT P6SM SCT050 BKN200
     FM120000 VRB05KT P6SM SCT040 BKN080
     FM121200 16010KT 5SM -RASN BKN040=



000
FTUS45 KTFX 111739
TAFLWT
TAF
KLWT 111739Z 1118/1218 30015KT P6SM SCT200
     FM120000 VRB05KT P6SM SCT030 BKN080
     FM121500 13015KT 5SM -SNRA BKN025=



000
FTUS45 KTFX 111739
TAFGTF
TAF
KGTF 111739Z 1118/1218 28015KT P6SM SCT050 BKN200
     FM120000 VRB05KT P6SM SCT040 BKN080
     FM121200 16010KT 5SM -RASN BKN040=



000
FTUS45 KTFX 111739
TAFLWT
TAF
KLWT 111739Z 1118/1218 30015KT P6SM SCT200
     FM120000 VRB05KT P6SM SCT030 BKN080
     FM121500 13015KT 5SM -SNRA BKN025=



000
FTUS45 KTFX 111739
TAFHVR
TAF
KHVR 111739Z 1118/1218 26010KT P6SM SCT015 BKN090
     FM112100 31010KT P6SM SCT015 BKN080
     FM120900 06010KT P6SM BKN015
     FM121500 10015KT 5SM -SNRA BKN015=



000
FTUS45 KTFX 111739
TAFCTB
TAF
KCTB 111739Z 1118/1218 30015KT P6SM SCT200
     FM120300 VRB05KT P6SM SCT030 BKN070
     FM121500 13010KT 5SM -SNRA SCT025 OVC040=



000
FTUS45 KTFX 111739
TAFHVR
TAF
KHVR 111739Z 1118/1218 26010KT P6SM SCT015 BKN090
     FM112100 31010KT P6SM SCT015 BKN080
     FM120900 06010KT P6SM BKN015
     FM121500 10015KT 5SM -SNRA BKN015=



000
FTUS45 KTFX 111739
TAFCTB
TAF
KCTB 111739Z 1118/1218 30015KT P6SM SCT200
     FM120300 VRB05KT P6SM SCT030 BKN070
     FM121500 13010KT 5SM -SNRA SCT025 OVC040=



    US Dept of Commerce
    National Oceanic and Atmospheric Administration
    National Weather Service
    1325 East West Highway
    Silver Spring, MD 20910
    Page Author: NWS Internet Services Team
Disclaimer
Information Quality
Credits
Glossary
Privacy Policy
Freedom of Information Act (FOIA)
About Us
Career Opportunities